Time;durP1;ratioP1;P1;durP2;ratioP2;P2;SDS_P1;SDS_P2;PMS_P1;PMS_P2;Temp;Humidity;BMP_temperature;BMP_pressure;BME280_temperature;BME280_humidity;BME280_pressure;Samples;Min_cycle;Max_cycle;Signal;HPM_P1;HPM_P2
2021/07/06 00:00:18;;;;;;;19.83;11.47;;;19.00;99.90;;;;;;5095861;28;20488;-61
2021/07/06 00:02:49;;;;;;;11.80;10.57;;;19.00;99.90;;;;;;5093066;28;20434;-61
2021/07/06 00:05:16;;;;;;;13.37;10.33;;;19.00;99.90;;;;;;5091242;28;20440;-61
2021/07/06 00:07:44;;;;;;;16.43;10.60;;;19.00;99.90;;;;;;5089073;28;20469;-60
2021/07/06 00:10:12;;;;;;;11.47;10.07;;;18.80;99.90;;;;;;5095959;28;20536;-62
2021/07/06 00:12:39;;;;;;;12.23;10.33;;;18.80;99.90;;;;;;5095005;28;20820;-61
2021/07/06 00:15:08;;;;;;;12.27;10.97;;;18.70;99.90;;;;;;5102734;28;20459;-62
2021/07/06 00:17:37;;;;;;;13.70;12.17;;;18.50;99.90;;;;;;5094041;28;20464;-61
2021/07/06 00:20:07;;;;;;;12.83;11.60;;;18.50;99.90;;;;;;5099514;28;20472;-62
2021/07/06 00:22:35;;;;;;;11.73;10.10;;;18.60;99.90;;;;;;5098722;28;20478;-61
2021/07/06 00:25:05;;;;;;;10.83;9.93;;;18.70;99.90;;;;;;5081070;28;20450;-62
2021/07/06 00:27:32;;;;;;;11.03;10.03;;;18.60;99.90;;;;;;5112046;28;20423;-62
2021/07/06 00:29:59;;;;;;;12.03;9.70;;;18.70;99.90;;;;;;5086431;28;20592;-61
2021/07/06 00:32:26;;;;;;;12.70;9.43;;;18.70;99.90;;;;;;5099476;28;20467;-61
2021/07/06 00:34:54;;;;;;;10.63;9.63;;;19.00;99.90;;;;;;5092825;28;20439;-61
2021/07/06 00:37:21;;;;;;;11.40;10.43;;;18.40;99.90;;;;;;5073177;28;20475;-61
2021/07/06 00:39:48;;;;;;;13.20;9.80;;;18.50;99.90;;;;;;5084330;28;20456;-60
2021/07/06 00:42:15;;;;;;;10.90;9.80;;;18.50;99.90;;;;;;5098702;28;20848;-61
2021/07/06 00:44:42;;;;;;;11.10;10.00;;;18.50;99.90;;;;;;5098316;28;20421;-62
2021/07/06 00:47:09;;;;;;;11.47;10.27;;;18.60;99.90;;;;;;5101233;28;20496;-61
2021/07/06 00:49:36;;;;;;;11.20;10.07;;;18.60;99.90;;;;;;5104233;28;20445;-62
2021/07/06 00:52:05;;;;;;;11.13;10.00;;;18.50;99.90;;;;;;5093445;28;20631;-61
2021/07/06 00:54:32;;;;;;;10.80;9.90;;;18.50;99.90;;;;;;5097204;28;20420;-61
2021/07/06 00:57:01;;;;;;;11.60;10.17;;;18.60;99.90;;;;;;5072988;28;20421;-61
2021/07/06 00:59:28;;;;;;;11.10;10.00;;;18.70;99.90;;;;;;5097574;28;20482;-61
2021/07/06 01:01:55;;;;;;;9.83;8.83;;;18.40;99.90;;;;;;5098322;28;20454;-61
2021/07/06 01:04:22;;;;;;;9.23;8.33;;;18.30;99.90;;;;;;5102132;28;20435;-60
2021/07/06 01:06:49;;;;;;;9.70;8.70;;;18.30;99.90;;;;;;5087931;28;20425;-61
2021/07/06 01:09:16;;;;;;;10.73;8.27;;;18.20;99.90;;;;;;5097767;28;20473;-62
2021/07/06 01:11:44;;;;;;;8.60;7.87;;;18.20;99.90;;;;;;5098313;28;20463;-60
2021/07/06 01:14:11;;;;;;;9.17;8.37;;;18.00;99.90;;;;;;5097833;28;20461;-62
2021/07/06 01:16:38;;;;;;;8.60;7.43;;;18.00;99.90;;;;;;5097764;28;20443;-60
2021/07/06 01:19:05;;;;;;;8.93;8.03;;;18.00;99.90;;;;;;5098543;28;20540;-61
2021/07/06 01:21:32;;;;;;;8.57;7.80;;;18.10;99.90;;;;;;5104559;28;20534;-61
2021/07/06 01:23:59;;;;;;;9.20;8.30;;;18.00;99.90;;;;;;5094007;28;20421;-61
2021/07/06 01:26:26;;;;;;;8.50;7.70;;;18.10;99.90;;;;;;5103711;28;20465;-62
2021/07/06 01:28:54;;;;;;;8.77;6.93;;;18.10;99.90;;;;;;5105575;28;20425;-63
2021/07/06 01:31:21;;;;;;;7.33;6.63;;;18.00;99.90;;;;;;5102397;28;20453;-61
2021/07/06 01:33:48;;;;;;;7.77;5.90;;;18.10;99.90;;;;;;5089564;28;20417;-60
2021/07/06 01:36:18;;;;;;;7.27;6.67;;;18.00;99.90;;;;;;5097479;28;20971;-60
2021/07/06 01:38:45;;;;;;;7.57;6.70;;;18.00;99.90;;;;;;5098292;28;20747;-61
2021/07/06 01:41:12;;;;;;;8.33;7.53;;;17.90;99.90;;;;;;5112273;28;20447;-61
2021/07/06 01:43:39;;;;;;;9.40;6.87;;;17.90;99.90;;;;;;5089552;28;20506;-60
2021/07/06 01:46:06;;;;;;;7.63;6.70;;;18.00;99.90;;;;;;5099371;28;20486;-60
2021/07/06 01:48:33;;;;;;;8.63;5.93;;;17.90;99.90;;;;;;5073314;28;20457;-60
2021/07/06 01:51:00;;;;;;;6.00;5.50;;;17.80;99.90;;;;;;5097633;28;21088;-61
2021/07/06 01:53:28;;;;;;;7.10;6.50;;;17.90;99.90;;;;;;5092665;28;20442;-62
2021/07/06 01:55:55;;;;;;;7.67;6.00;;;18.00;99.90;;;;;;5095610;28;20420;-62
2021/07/06 01:58:26;;;;;;;7.77;6.97;;;18.00;99.90;;;;;;5097400;28;20409;-62
2021/07/06 02:00:58;;;;;;;7.03;6.50;;;18.10;99.90;;;;;;5096951;28;20457;-61
2021/07/06 02:03:26;;;;;;;7.70;7.00;;;18.10;99.90;;;;;;5096869;28;20446;-61
2021/07/06 02:05:58;;;;;;;7.30;5.80;;;18.00;99.90;;;;;;5089022;28;20446;-60
2021/07/06 02:08:26;;;;;;;7.50;6.40;;;18.10;99.90;;;;;;5096702;28;20440;-61
2021/07/06 02:10:55;;;;;;;5.53;5.07;;;18.00;99.90;;;;;;5097014;28;20456;-62
2021/07/06 02:13:24;;;;;;;6.57;6.07;;;17.90;99.90;;;;;;5096752;28;20439;-61
2021/07/06 02:15:55;;;;;;;6.27;5.77;;;17.70;99.90;;;;;;5106174;28;21043;-61
2021/07/06 02:18:23;;;;;;;8.97;6.40;;;17.60;99.90;;;;;;5114749;28;20683;-62
2021/07/06 02:20:52;;;;;;;6.43;5.67;;;17.60;99.90;;;;;;5116213;28;20483;-62
2021/07/06 02:23:20;;;;;;;7.53;6.70;;;17.50;99.90;;;;;;5102285;28;20644;-62
2021/07/06 02:25:51;;;;;;;8.00;6.57;;;17.60;99.90;;;;;;5105842;28;20422;-60
2021/07/06 02:28:19;;;;;;;5.97;5.50;;;17.60;99.90;;;;;;5095198;28;20483;-60
2021/07/06 02:30:46;;;;;;;5.60;5.20;;;17.50;99.90;;;;;;5096846;28;20449;-62
2021/07/06 02:33:14;;;;;;;6.83;5.63;;;17.60;99.90;;;;;;5104548;28;20434;-61
2021/07/06 02:35:41;;;;;;;8.13;5.50;;;17.50;99.90;;;;;;5090316;28;20524;-61
2021/07/06 02:38:09;;;;;;;5.53;5.03;;;17.40;99.90;;;;;;5096178;28;20487;-61
2021/07/06 02:40:36;;;;;;;5.83;5.30;;;17.20;99.90;;;;;;5096886;28;20456;-61
2021/07/06 02:43:03;;;;;;;6.10;5.60;;;17.30;99.90;;;;;;5097331;28;20416;-61
2021/07/06 02:45:30;;;;;;;6.83;5.70;;;17.10;99.90;;;;;;5090883;28;20774;-62
2021/07/06 02:47:58;;;;;;;8.10;6.37;;;17.40;99.90;;;;;;5096188;28;20600;-60
2021/07/06 02:50:26;;;;;;;5.83;5.20;;;17.20;99.90;;;;;;5110475;28;20416;-62
2021/07/06 02:52:54;;;;;;;13.10;6.97;;;17.20;99.90;;;;;;5096563;28;20776;-62
2021/07/06 02:55:22;;;;;;;8.60;5.90;;;17.40;99.90;;;;;;5096106;28;20650;-60
2021/07/06 02:57:52;;;;;;;10.30;6.60;;;17.50;99.90;;;;;;5096740;28;20671;-62
2021/07/06 03:00:24;;;;;;;6.17;5.57;;;17.40;99.90;;;;;;5095697;28;20479;-62
2021/07/06 03:02:56;;;;;;;6.13;5.57;;;17.50;99.90;;;;;;5082960;28;20438;-61
2021/07/06 03:05:26;;;;;;;6.23;5.73;;;17.50;99.90;;;;;;5086862;28;20589;-61
2021/07/06 03:07:55;;;;;;;5.70;5.20;;;17.60;99.90;;;;;;5078707;28;20419;-62
2021/07/06 03:10:25;;;;;;;8.53;6.23;;;17.90;99.90;;;;;;5091773;28;20475;-62
2021/07/06 03:12:53;;;;;;;8.80;6.30;;;18.00;99.90;;;;;;5095270;28;20663;-62
2021/07/06 03:15:22;;;;;;;5.90;5.40;;;17.90;99.90;;;;;;5084855;28;20447;-61
2021/07/06 03:17:49;;;;;;;6.10;5.60;;;17.60;99.90;;;;;;5084029;28;20421;-62
2021/07/06 03:20:20;;;;;;;6.70;6.03;;;17.40;99.90;;;;;;5089861;28;20548;-61
2021/07/06 03:22:47;;;;;;;6.13;5.63;;;17.60;99.90;;;;;;5097186;28;20475;-61
2021/07/06 03:25:17;;;;;;;7.20;5.63;;;17.80;99.90;;;;;;5108734;28;20433;-61
2021/07/06 03:27:44;;;;;;;5.80;5.30;;;17.80;99.90;;;;;;5096140;28;20419;-61
2021/07/06 03:30:14;;;;;;;6.43;5.83;;;18.00;99.90;;;;;;5109506;28;20999;-62
2021/07/06 03:32:42;;;;;;;6.03;4.70;;;18.10;99.90;;;;;;5110071;28;20451;-62
2021/07/06 03:35:10;;;;;;;6.07;5.57;;;18.40;99.90;;;;;;5096493;28;21040;-61
2021/07/06 03:37:37;;;;;;;7.60;5.33;;;18.50;99.90;;;;;;5095215;28;20408;-61
2021/07/06 03:40:06;;;;;;;6.00;5.47;;;18.60;99.90;;;;;;5096324;28;20496;-62
2021/07/06 03:42:33;;;;;;;7.27;5.93;;;18.70;99.90;;;;;;5086658;28;20712;-61
2021/07/06 03:45:01;;;;;;;6.33;5.73;;;19.00;99.90;;;;;;5093452;28;20471;-62
2021/07/06 03:47:28;;;;;;;5.47;5.00;;;19.30;99.90;;;;;;5081372;28;20473;-61
2021/07/06 03:49:55;;;;;;;6.83;6.23;;;19.60;99.90;;;;;;5090259;28;20420;-61
2021/07/06 03:52:22;;;;;;;5.83;5.40;;;20.00;99.90;;;;;;5091950;28;20422;-61
2021/07/06 03:54:50;;;;;;;5.73;5.20;;;20.30;99.90;;;;;;5089549;28;20743;-62
2021/07/06 03:57:28;;;;;;;5.90;5.40;;;20.60;99.90;;;;;;5093610;28;20414;-62
2021/07/06 04:00:03;;;;;;;6.00;5.50;;;20.80;99.90;;;;;;5098957;28;20508;-62
2021/07/06 04:02:30;;;;;;;6.33;5.70;;;21.10;99.90;;;;;;5099556;28;20673;-61
2021/07/06 04:04:57;;;;;;;5.63;5.03;;;21.30;99.90;;;;;;5090274;28;20459;-61
2021/07/06 04:07:24;;;;;;;5.20;4.80;;;21.00;99.90;;;;;;5099300;28;20463;-61
2021/07/06 04:09:51;;;;;;;5.33;4.90;;;21.10;99.90;;;;;;5098781;28;20753;-62
2021/07/06 04:12:18;;;;;;;7.53;6.73;;;21.30;99.90;;;;;;5099551;28;20418;-62
2021/07/06 04:14:45;;;;;;;8.13;5.47;;;21.30;99.90;;;;;;5099168;28;20452;-62
2021/07/06 04:17:12;;;;;;;6.53;5.80;;;21.30;99.90;;;;;;5099061;28;20764;-62
2021/07/06 04:19:40;;;;;;;5.90;5.30;;;21.50;99.90;;;;;;5099376;28;20456;-62
2021/07/06 04:22:07;;;;;;;4.90;4.50;;;21.20;99.90;;;;;;5090073;28;20489;-62
2021/07/06 04:24:34;;;;;;;4.67;4.27;;;21.10;99.90;;;;;;5113328;28;20438;-61
2021/07/06 04:27:01;;;;;;;4.60;4.30;;;20.60;99.90;;;;;;5108132;28;20843;-62
2021/07/06 04:29:29;;;;;;;5.47;4.70;;;20.40;99.90;;;;;;5104472;28;20418;-61
2021/07/06 04:31:56;;;;;;;5.03;4.53;;;20.30;99.90;;;;;;5112112;28;20477;-62
2021/07/06 04:34:24;;;;;;;4.70;4.30;;;20.10;99.90;;;;;;5107345;28;20423;-61
2021/07/06 04:36:51;;;;;;;4.80;4.50;;;20.20;99.90;;;;;;5098510;28;20444;-61
2021/07/06 04:39:19;;;;;;;4.53;4.13;;;20.10;99.90;;;;;;5098743;28;20458;-62
2021/07/06 04:41:47;;;;;;;4.80;4.40;;;20.10;99.90;;;;;;5080941;28;20743;-61
2021/07/06 04:44:14;;;;;;;4.43;4.03;;;20.30;99.90;;;;;;5087893;28;20450;-61
2021/07/06 04:46:42;;;;;;;4.00;3.77;;;20.30;99.90;;;;;;5085452;28;20422;-62
2021/07/06 04:49:09;;;;;;;4.20;3.80;;;20.30;99.90;;;;;;5082062;28;20504;-63
2021/07/06 04:51:36;;;;;;;5.37;4.73;;;20.40;99.90;;;;;;5096605;28;20446;-61
2021/07/06 04:54:04;;;;;;;5.30;4.90;;;20.40;99.90;;;;;;5098533;28;20448;-61
2021/07/06 04:56:31;;;;;;;5.63;4.53;;;20.50;99.90;;;;;;5098125;28;20468;-61
2021/07/06 04:58:58;;;;;;;4.70;4.00;;;20.60;99.90;;;;;;5097807;28;20422;-61
2021/07/06 05:01:25;;;;;;;4.90;4.50;;;20.60;99.90;;;;;;5097546;28;20532;-61
2021/07/06 05:03:54;;;;;;;5.23;4.73;;;20.70;99.90;;;;;;5097657;28;20470;-61
2021/07/06 05:06:21;;;;;;;4.23;3.80;;;20.80;99.90;;;;;;5093717;28;20542;-61
2021/07/06 05:08:48;;;;;;;4.17;3.77;;;21.10;99.90;;;;;;5098123;28;20414;-61
2021/07/06 05:11:16;;;;;;;6.80;5.70;;;21.00;99.90;;;;;;5098203;28;20448;-61
2021/07/06 05:13:43;;;;;;;5.23;4.83;;;21.10;99.90;;;;;;5097922;28;20424;-61
2021/07/06 05:16:10;;;;;;;6.20;5.60;;;21.20;99.90;;;;;;5098111;28;20451;-61
2021/07/06 05:18:38;;;;;;;3.77;3.57;;;21.20;99.90;;;;;;5097387;28;20414;-61
2021/07/06 05:21:05;;;;;;;12.50;5.13;;;21.30;99.90;;;;;;5098348;28;20462;-60
2021/07/06 05:23:32;;;;;;;4.70;4.30;;;21.70;99.90;;;;;;5101851;28;21005;-62
2021/07/06 05:25:59;;;;;;;7.37;5.63;;;21.90;99.90;;;;;;5103376;28;20521;-62
2021/07/06 05:28:26;;;;;;;4.50;3.90;;;22.00;99.90;;;;;;5098194;28;20511;-62
2021/07/06 05:30:53;;;;;;;4.60;4.20;;;22.20;99.90;;;;;;5097851;28;20519;-62
2021/07/06 05:33:21;;;;;;;4.20;3.80;;;22.30;99.90;;;;;;5087073;28;20450;-61
2021/07/06 05:35:48;;;;;;;5.50;3.37;;;22.50;99.90;;;;;;5101349;28;20423;-62
2021/07/06 05:38:15;;;;;;;4.27;3.97;;;22.60;99.90;;;;;;5097672;28;20446;-61
2021/07/06 05:41:02;;;;;;;8.20;6.00;;;22.60;99.90;;;;;;5092130;28;20474;-60
2021/07/06 05:43:29;;;;;;;4.00;3.60;;;22.80;99.90;;;;;;5097382;28;20443;-60
2021/07/06 05:45:56;;;;;;;4.10;3.80;;;23.00;99.90;;;;;;5097054;28;20650;-62
2021/07/06 05:48:24;;;;;;;3.63;3.33;;;23.10;99.90;;;;;;5097298;28;20933;-61
2021/07/06 05:50:51;;;;;;;6.17;5.50;;;23.20;99.90;;;;;;5096623;28;20783;-61
2021/07/06 05:53:18;;;;;;;4.43;4.13;;;23.20;99.90;;;;;;5098351;28;20445;-61
2021/07/06 05:55:45;;;;;;;4.37;3.53;;;23.30;99.90;;;;;;5092951;28;20493;-61
2021/07/06 05:58:12;;;;;;;7.13;4.77;;;23.30;99.90;;;;;;5094519;28;20481;-61
2021/07/06 06:00:39;;;;;;;4.50;3.70;;;23.50;99.90;;;;;;5079276;28;20457;-60
2021/07/06 06:03:11;;;;;;;4.30;3.90;;;23.60;99.90;;;;;;5082541;28;20445;-61
2021/07/06 06:05:42;;;;;;;4.00;3.63;;;24.00;99.90;;;;;;5097911;28;20461;-61
2021/07/06 06:08:13;;;;;;;4.10;3.90;;;24.20;99.90;;;;;;5100443;28;20430;-60
2021/07/06 06:10:41;;;;;;;4.20;3.90;;;24.50;99.90;;;;;;5091388;28;20507;-61
2021/07/06 06:13:08;;;;;;;4.10;3.80;;;24.80;99.90;;;;;;5092232;28;20443;-60
2021/07/06 06:15:36;;;;;;;4.17;3.97;;;25.10;99.90;;;;;;5100494;28;20454;-61
2021/07/06 06:18:04;;;;;;;4.57;4.37;;;25.70;99.90;;;;;;5091310;28;20456;-61
2021/07/06 06:20:31;;;;;;;4.33;4.13;;;26.30;99.90;;;;;;5097209;28;20470;-60
2021/07/06 06:22:58;;;;;;;4.73;4.43;;;27.10;99.90;;;;;;5100922;28;20563;-60
2021/07/06 06:25:26;;;;;;;4.80;4.50;;;27.40;99.20;;;;;;5107898;28;20453;-61
2021/07/06 06:27:54;;;;;;;8.03;7.53;;;28.30;97.90;;;;;;5096748;28;20470;-59
2021/07/06 06:30:22;;;;;;;8.23;7.60;;;29.50;95.60;;;;;;5096929;28;20443;-60
2021/07/06 06:32:51;;;;;;;6.10;5.70;;;30.40;93.30;;;;;;5096229;28;20466;-59
2021/07/06 06:35:18;;;;;;;6.13;5.77;;;32.20;90.40;;;;;;5089435;28;20542;-59
2021/07/06 06:37:46;;;;;;;7.10;6.70;;;32.50;83.70;;;;;;5096671;28;20753;-60
2021/07/06 06:40:14;;;;;;;7.53;7.03;;;33.10;80.80;;;;;;5096441;28;20470;-60
2021/07/06 06:42:42;;;;;;;7.33;6.70;;;34.40;74.80;;;;;;5096963;28;20485;-58
2021/07/06 06:45:11;;;;;;;6.57;6.27;;;35.00;72.70;;;;;;5097235;28;20447;-62
2021/07/06 06:47:39;;;;;;;6.57;6.27;;;35.20;70.20;;;;;;5095119;28;20450;-59
2021/07/06 06:50:08;;;;;;;6.17;5.77;;;35.70;66.20;;;;;;5094181;28;20447;-59
2021/07/06 06:52:35;;;;;;;6.10;5.90;;;36.60;63.90;;;;;;5096548;28;20447;-60
2021/07/06 06:55:04;;;;;;;6.13;5.93;;;37.20;60.00;;;;;;5097192;28;20439;-62
2021/07/06 06:57:32;;;;;;;6.80;6.50;;;37.10;58.70;;;;;;5097357;28;20446;-60
2021/07/06 06:59:59;;;;;;;6.17;5.97;;;37.50;57.60;;;;;;5097362;28;20500;-59
2021/07/06 07:02:29;;;;;;;5.80;5.60;;;37.70;54.50;;;;;;5074749;28;20476;-60
2021/07/06 07:04:57;;;;;;;6.50;6.30;;;38.10;54.40;;;;;;5095655;28;20458;-59
2021/07/06 07:07:24;;;;;;;6.70;6.50;;;38.50;52.70;;;;;;5097323;28;20802;-59
2021/07/06 07:09:52;;;;;;;6.90;6.70;;;39.20;50.60;;;;;;5094697;28;20467;-61
2021/07/06 07:12:19;;;;;;;6.53;6.33;;;40.70;49.40;;;;;;5088666;28;20435;-59
2021/07/06 07:14:47;;;;;;;7.87;7.57;;;42.30;45.60;;;;;;5085902;28;20439;-59
2021/07/06 07:17:16;;;;;;;8.10;7.80;;;43.20;44.30;;;;;;5104212;28;20449;-62
2021/07/06 07:19:45;;;;;;;7.93;7.73;;;42.70;43.00;;;;;;5105920;28;20462;-61
2021/07/06 07:22:13;;;;;;;8.17;7.87;;;41.90;43.50;;;;;;5101236;28;20506;-60
2021/07/06 07:24:40;;;;;;;7.83;7.50;;;42.90;41.80;;;;;;5113466;28;20467;-60
2021/07/06 07:27:07;;;;;;;8.47;8.03;;;42.90;41.40;;;;;;5102123;28;20815;-60
2021/07/06 07:29:34;;;;;;;7.50;7.30;;;43.10;41.10;;;;;;5100792;28;21107;-59
2021/07/06 07:32:03;;;;;;;7.60;7.40;;;43.10;41.00;;;;;;5109227;28;20449;-60
2021/07/06 07:34:31;;;;;;;7.07;6.87;;;41.90;41.30;;;;;;5106996;28;20617;-60
2021/07/06 07:36:58;;;;;;;7.93;7.63;;;40.90;41.90;;;;;;5093091;28;20446;-60
2021/07/06 07:39:25;;;;;;;8.50;8.17;;;40.30;42.70;;;;;;5100141;28;20777;-61
2021/07/06 07:41:52;;;;;;;7.80;7.50;;;40.20;43.60;;;;;;5100940;28;20473;-61
2021/07/06 07:44:19;;;;;;;8.17;7.77;;;41.90;41.20;;;;;;5100469;28;20781;-60
2021/07/06 07:46:46;;;;;;;8.00;7.70;;;41.60;41.00;;;;;;5100373;28;20748;-60
2021/07/06 07:49:13;;;;;;;7.57;7.37;;;43.20;39.70;;;;;;5100559;28;20465;-60
2021/07/06 07:51:41;;;;;;;7.70;7.50;;;43.00;39.60;;;;;;5100069;28;20472;-59
2021/07/06 07:54:10;;;;;;;7.87;7.57;;;43.20;39.30;;;;;;5085887;28;20710;-61
2021/07/06 07:56:37;;;;;;;7.57;7.37;;;42.80;39.70;;;;;;5100316;28;20610;-59
2021/07/06 07:59:04;;;;;;;7.20;7.00;;;41.50;41.40;;;;;;5095350;28;20442;-60
2021/07/06 08:01:32;;;;;;;7.43;7.13;;;41.60;41.20;;;;;;5100739;28;20532;-59
2021/07/06 08:04:02;;;;;;;7.50;7.30;;;41.40;42.30;;;;;;5101410;28;21071;-60
2021/07/06 08:06:30;;;;;;;10.37;8.57;;;42.60;40.40;;;;;;5081935;28;20443;-59
2021/07/06 08:08:57;;;;;;;7.40;7.20;;;43.40;39.70;;;;;;5093529;28;20444;-61
2021/07/06 08:11:24;;;;;;;8.00;7.70;;;44.20;38.50;;;;;;5095057;28;20458;-59
2021/07/06 08:13:51;;;;;;;8.07;7.77;;;44.50;38.40;;;;;;5088072;28;20496;-60
2021/07/06 08:16:19;;;;;;;8.03;7.83;;;44.10;38.00;;;;;;5100045;28;20446;-60
2021/07/06 08:18:46;;;;;;;7.23;6.93;;;44.30;38.10;;;;;;5088140;28;20463;-60
2021/07/06 08:21:13;;;;;;;8.23;7.93;;;43.40;39.50;;;;;;5100744;28;20676;-61
2021/07/06 08:23:40;;;;;;;7.03;6.83;;;42.70;39.20;;;;;;5103045;28;20679;-60
2021/07/06 08:26:07;;;;;;;8.57;8.17;;;43.60;38.10;;;;;;5082419;28;20451;-59
2021/07/06 08:28:34;;;;;;;8.30;8.00;;;44.20;37.10;;;;;;5099937;28;20814;-60
2021/07/06 08:31:01;;;;;;;8.80;8.30;;;44.20;37.20;;;;;;5099921;28;20475;-59
2021/07/06 08:33:29;;;;;;;8.00;7.80;;;43.50;37.40;;;;;;5099285;28;20474;-60
2021/07/06 08:35:56;;;;;;;8.17;7.87;;;43.60;37.70;;;;;;5099329;28;20451;-60
2021/07/06 08:38:23;;;;;;;9.00;8.50;;;45.10;35.80;;;;;;5094741;28;20821;-61
2021/07/06 08:40:51;;;;;;;8.07;7.77;;;46.40;33.70;;;;;;5099100;28;20446;-61
2021/07/06 08:43:18;;;;;;;8.57;8.27;;;45.20;34.60;;;;;;5100547;28;20678;-60
2021/07/06 08:45:46;;;;;;;8.13;7.83;;;42.30;37.20;;;;;;5099592;28;20445;-60
2021/07/06 08:48:14;;;;;;;8.33;8.10;;;41.90;37.70;;;;;;5099890;28;20439;-61
2021/07/06 08:50:45;;;;;;;7.87;7.53;;;41.90;37.20;;;;;;5100146;28;20450;-61
2021/07/06 08:53:12;;;;;;;7.50;7.30;;;42.50;37.20;;;;;;5099570;28;20439;-60
2021/07/06 08:55:40;;;;;;;8.23;7.97;;;42.40;37.10;;;;;;5099285;28;20492;-61
2021/07/06 08:58:07;;;;;;;7.40;7.10;;;43.20;36.70;;;;;;5098701;28;20426;-59
2021/07/06 09:00:35;;;;;;;7.47;7.20;;;43.70;36.00;;;;;;5099741;28;20758;-60
2021/07/06 09:03:09;;;;;;;7.90;7.70;;;42.70;36.00;;;;;;5098756;28;20510;-60
2021/07/06 09:05:38;;;;;;;8.40;8.10;;;44.40;35.00;;;;;;5099985;28;20460;-60
2021/07/06 09:08:07;;;;;;;8.40;8.10;;;45.50;34.20;;;;;;5094411;28;20686;-61
2021/07/06 09:10:39;;;;;;;8.03;7.63;;;45.40;33.70;;;;;;5087953;28;20534;-60
2021/07/06 09:13:27;;;;;;;8.77;8.47;;;45.50;34.00;;;;;;5085972;28;20449;-60
2021/07/06 09:15:57;;;;;;;8.30;8.00;;;44.60;34.00;;;;;;5100663;28;20422;-60
2021/07/06 09:18:30;;;;;;;8.43;8.13;;;43.30;35.50;;;;;;5081214;28;20494;-59
2021/07/06 09:21:14;;;;;;;8.33;8.03;;;43.10;36.00;;;;;;5103604;28;20484;-60
2021/07/06 09:23:45;;;;;;;8.60;8.30;;;42.30;36.90;;;;;;5101655;28;20450;-59
2021/07/06 09:26:12;;;;;;;8.57;8.27;;;40.80;38.20;;;;;;5100620;28;20710;-60
2021/07/06 09:28:57;;;;;;;8.27;7.97;;;41.30;38.10;;;;;;5101028;28;20525;-60
2021/07/06 09:31:31;;;;;;;7.97;7.77;;;41.20;38.10;;;;;;5098794;28;20435;-61
2021/07/06 09:34:06;;;;;;;8.47;8.17;;;41.60;37.90;;;;;;5099352;28;20479;-61
2021/07/06 09:36:45;;;;;;;7.80;7.60;;;40.00;38.90;;;;;;5093515;28;20506;-60
2021/07/06 09:39:21;;;;;;;7.40;7.10;;;38.70;41.40;;;;;;5100203;28;20559;-60
2021/07/06 09:42:08;;;;;;;6.90;6.60;;;37.40;44.00;;;;;;5101783;28;20541;-61
2021/07/06 09:44:42;;;;;;;8.03;7.73;;;34.60;47.20;;;;;;5097474;28;20442;-60
2021/07/06 09:47:13;;;;;;;7.30;7.00;;;33.10;50.20;;;;;;5091446;28;20793;-60
2021/07/06 09:49:54;;;;;;;7.17;6.87;;;32.40;52.40;;;;;;5088809;28;20451;-60
2021/07/06 09:52:22;;;;;;;6.70;6.50;;;32.00;53.50;;;;;;5097675;28;20435;-60
2021/07/06 09:54:56;;;;;;;6.20;6.00;;;31.70;52.90;;;;;;5089331;28;20500;-61
2021/07/06 09:57:29;;;;;;;6.17;5.97;;;31.40;53.90;;;;;;5098147;28;20494;-60
2021/07/06 10:00:08;;;;;;;5.90;5.70;;;30.80;54.60;;;;;;5097804;28;20432;-61
2021/07/06 10:02:38;;;;;;;5.83;5.63;;;30.30;55.80;;;;;;5090451;28;20895;-61
2021/07/06 10:05:12;;;;;;;6.60;6.30;;;29.90;57.50;;;;;;5096429;28;20530;-61
2021/07/06 10:07:40;;;;;;;6.10;5.90;;;30.30;58.00;;;;;;5092435;28;20453;-60
2021/07/06 10:10:12;;;;;;;6.30;6.10;;;30.20;56.00;;;;;;5089497;28;21079;-61
2021/07/06 10:12:45;;;;;;;7.13;6.83;;;30.10;56.80;;;;;;5091912;28;20476;-59
2021/07/06 10:15:15;;;;;;;6.53;6.33;;;29.80;57.50;;;;;;5088769;28;20439;-62
2021/07/06 10:17:46;;;;;;;6.20;6.00;;;29.70;57.90;;;;;;5091326;28;20507;-63
2021/07/06 10:20:20;;;;;;;6.47;6.27;;;29.90;58.10;;;;;;5095574;28;20443;-61
2021/07/06 10:22:58;;;;;;;6.70;6.30;;;30.30;57.60;;;;;;5086530;28;20490;-60
2021/07/06 10:25:27;;;;;;;6.90;6.60;;;30.70;57.10;;;;;;5098169;28;20406;-61
2021/07/06 10:28:00;;;;;;;6.80;6.60;;;30.90;57.20;;;;;;5097003;28;20441;-61
2021/07/06 10:30:42;;;;;;;6.80;6.50;;;30.90;56.80;;;;;;5097690;28;20449;-62
2021/07/06 10:33:16;;;;;;;6.30;6.10;;;30.70;55.20;;;;;;5097502;28;20436;-61
2021/07/06 10:35:47;;;;;;;6.20;6.00;;;30.60;56.20;;;;;;5096789;28;20439;-62
2021/07/06 10:38:32;;;;;;;6.80;6.53;;;30.70;56.80;;;;;;5097365;28;20453;-61
2021/07/06 10:41:14;;;;;;;6.40;5.80;;;31.00;55.90;;;;;;5097355;28;20486;-61
2021/07/06 10:43:44;;;;;;;6.67;6.37;;;30.90;55.90;;;;;;5096967;28;20488;-61
2021/07/06 10:46:15;;;;;;;6.67;6.27;;;31.00;56.30;;;;;;5091459;28;20444;-62
2021/07/06 10:48:44;;;;;;;6.30;6.10;;;31.30;55.50;;;;;;5097831;28;20464;-61
2021/07/06 10:51:33;;;;;;;5.97;5.70;;;31.20;54.30;;;;;;5097198;28;20650;-60
2021/07/06 10:54:06;;;;;;;5.37;5.20;;;31.10;55.00;;;;;;5103673;28;20447;-64
2021/07/06 10:56:48;;;;;;;5.77;5.57;;;31.00;55.20;;;;;;5091157;28;20457;-61
2021/07/06 10:59:26;;;;;;;6.10;5.80;;;31.10;55.70;;;;;;5097045;28;20471;-61
2021/07/06 11:01:59;;;;;;;6.20;6.00;;;31.10;55.60;;;;;;5091100;28;20479;-61
2021/07/06 11:04:45;;;;;;;5.90;5.70;;;31.10;55.70;;;;;;5089009;28;20463;-61
2021/07/06 11:07:14;;;;;;;5.93;5.73;;;31.00;55.20;;;;;;5097171;28;20542;-61
2021/07/06 11:09:41;;;;;;;5.90;5.70;;;30.80;55.10;;;;;;5091617;28;20472;-62
2021/07/06 11:12:34;;;;;;;5.70;5.50;;;30.60;56.00;;;;;;5096828;28;20447;-60
2021/07/06 11:15:27;;;;;;;5.90;5.67;;;30.40;57.10;;;;;;5089554;28;20869;-61
2021/07/06 11:18:01;;;;;;;6.10;5.80;;;30.40;57.20;;;;;;5101003;28;20804;-61
2021/07/06 11:20:40;;;;;;;6.20;5.67;;;30.40;57.00;;;;;;5077702;28;20446;-62
2021/07/06 11:23:29;;;;;;;6.00;5.80;;;30.60;56.80;;;;;;5092442;28;20471;-61
2021/07/06 11:26:04;;;;;;;5.50;5.30;;;30.70;56.80;;;;;;5108222;28;20448;-61
2021/07/06 11:28:49;;;;;;;5.93;5.63;;;30.90;56.30;;;;;;5113115;28;20645;-60
2021/07/06 11:31:19;;;;;;;6.20;6.00;;;31.00;55.80;;;;;;5100342;28;20441;-61
2021/07/06 11:33:48;;;;;;;6.43;6.07;;;30.90;55.30;;;;;;5102208;28;20448;-60
2021/07/06 11:36:26;;;;;;;6.77;6.47;;;30.40;56.20;;;;;;5089389;28;20784;-62
2021/07/06 11:38:59;;;;;;;7.03;6.63;;;30.60;56.60;;;;;;5096315;28;20468;-61
2021/07/06 11:41:26;;;;;;;6.97;6.30;;;30.50;56.70;;;;;;5089647;28;20445;-61
2021/07/06 11:43:55;;;;;;;5.80;5.60;;;30.50;57.10;;;;;;5096897;28;20528;-62
2021/07/06 11:46:22;;;;;;;6.17;5.97;;;30.70;57.20;;;;;;5095569;28;20445;-62
2021/07/06 11:48:54;;;;;;;6.13;5.93;;;30.90;56.70;;;;;;5092972;28;20444;-61
2021/07/06 11:51:24;;;;;;;6.43;6.20;;;30.40;55.90;;;;;;5088101;28;20625;-61
2021/07/06 11:54:02;;;;;;;6.60;6.20;;;30.30;57.70;;;;;;5092955;28;20520;-61
2021/07/06 11:56:32;;;;;;;5.77;5.57;;;30.60;57.10;;;;;;5094726;28;20506;-60
2021/07/06 11:58:59;;;;;;;5.43;5.23;;;30.90;57.30;;;;;;5095949;28;20457;-60
2021/07/06 12:01:27;;;;;;;6.47;6.10;;;31.20;56.00;;;;;;5095520;28;20528;-62
2021/07/06 12:03:55;;;;;;;5.37;5.17;;;31.30;55.90;;;;;;5078102;28;20952;-61
2021/07/06 12:06:22;;;;;;;5.47;5.27;;;31.00;54.80;;;;;;5095508;28;20522;-61
2021/07/06 12:08:52;;;;;;;6.13;5.93;;;30.60;55.70;;;;;;5097422;28;20490;-62
2021/07/06 12:11:24;;;;;;;5.20;5.00;;;30.20;56.00;;;;;;5098984;28;20835;-61
2021/07/06 12:13:59;;;;;;;5.40;5.20;;;30.40;57.20;;;;;;5093201;28;20637;-61
2021/07/06 12:16:33;;;;;;;6.10;5.90;;;30.70;56.90;;;;;;5094014;28;20467;-61
2021/07/06 12:19:10;;;;;;;6.40;6.17;;;30.90;56.20;;;;;;5106314;28;20478;-62
2021/07/06 12:21:47;;;;;;;6.07;5.77;;;30.90;56.60;;;;;;5095651;28;20501;-60
2021/07/06 12:24:16;;;;;;;6.00;5.80;;;30.90;56.60;;;;;;5107250;28;20440;-61
2021/07/06 12:26:47;;;;;;;6.27;6.07;;;30.80;55.40;;;;;;5099801;28;20450;-61
2021/07/06 12:29:29;;;;;;;6.50;6.20;;;30.50;56.50;;;;;;5099525;28;20453;-63
2021/07/06 12:32:12;;;;;;;6.03;5.83;;;30.80;56.60;;;;;;5098736;28;20500;-61
2021/07/06 12:34:50;;;;;;;7.30;6.70;;;31.00;56.10;;;;;;5095099;28;20437;-61
2021/07/06 12:37:17;;;;;;;6.33;6.10;;;31.10;56.90;;;;;;5098095;28;20993;-60
2021/07/06 12:39:45;;;;;;;6.10;5.90;;;30.80;55.70;;;;;;5098191;28;20789;-60
2021/07/06 12:42:24;;;;;;;6.57;6.27;;;30.40;56.50;;;;;;5103199;28;20485;-60
2021/07/06 12:44:57;;;;;;;5.57;5.37;;;30.30;57.20;;;;;;5104333;28;20461;-60
2021/07/06 12:47:32;;;;;;;5.60;5.40;;;30.50;56.90;;;;;;5092864;28;20455;-61
2021/07/06 12:50:12;;;;;;;5.87;5.50;;;30.50;57.20;;;;;;5085661;28;20441;-61
2021/07/06 12:52:51;;;;;;;5.70;5.40;;;30.70;57.00;;;;;;5091374;28;20459;-61
2021/07/06 12:55:27;;;;;;;6.00;5.70;;;30.90;56.70;;;;;;5094855;28;20440;-60
2021/07/06 12:58:03;;;;;;;8.17;5.20;;;30.60;57.10;;;;;;5100644;28;20429;-61